sensor_id;sensor_type;location;lat;lon;timestamp;pressure;altitude;pressure_sealevel;temperature;humidity
63447;BME280;49577;49.872;6.190;2023-04-02T00:11:44;98620.95;;;8.11;85.29
63447;BME280;49577;49.872;6.190;2023-04-02T00:16:46;98624.90;;;8.11;85.42
63447;BME280;49577;49.872;6.190;2023-04-02T00:19:18;98627.16;;;8.11;85.46
63447;BME280;49577;49.872;6.190;2023-04-02T00:21:47;98625.48;;;8.11;85.46
63447;BME280;49577;49.872;6.190;2023-04-02T00:24:16;98626.41;;;8.10;85.40
63447;BME280;49577;49.872;6.190;2023-04-02T00:26:45;98629.41;;;8.09;85.48
63447;BME280;49577;49.872;6.190;2023-04-02T00:29:14;98627.84;;;8.09;85.42
63447;BME280;49577;49.872;6.190;2023-04-02T00:31:42;98630.98;;;8.09;85.39
63447;BME280;49577;49.872;6.190;2023-04-02T00:34:14;98630.81;;;8.07;85.34
63447;BME280;49577;49.872;6.190;2023-04-02T00:36:42;98632.98;;;8.03;85.30
63447;BME280;49577;49.872;6.190;2023-04-02T00:39:27;98633.71;;;8.02;85.45
63447;BME280;49577;49.872;6.190;2023-04-02T00:41:55;98635.06;;;8.03;85.54
63447;BME280;49577;49.872;6.190;2023-04-02T00:44:30;98628.11;;;8.03;85.53
63447;BME280;49577;49.872;6.190;2023-04-02T00:46:59;98635.09;;;8.03;85.51
63447;BME280;49577;49.872;6.190;2023-04-02T00:49:39;98630.89;;;8.03;85.66
63447;BME280;49577;49.872;6.190;2023-04-02T00:52:07;98635.14;;;8.02;85.52
63447;BME280;49577;49.872;6.190;2023-04-02T00:54:47;98629.92;;;7.97;85.55
63447;BME280;49577;49.872;6.190;2023-04-02T00:57:16;98634.38;;;7.95;85.75
63447;BME280;49577;49.872;6.190;2023-04-02T00:59:57;98629.34;;;7.95;85.92
63447;BME280;49577;49.872;6.190;2023-04-02T01:02:31;98631.98;;;7.95;85.91
63447;BME280;49577;49.872;6.190;2023-04-02T01:05:03;98630.39;;;7.90;85.78
63447;BME280;49577;49.872;6.190;2023-04-02T01:08:01;98634.23;;;7.87;85.99
63447;BME280;49577;49.872;6.190;2023-04-02T01:11:00;98634.96;;;7.84;86.02
63447;BME280;49577;49.872;6.190;2023-04-02T01:16:37;98642.23;;;7.81;86.43
63447;BME280;49577;49.872;6.190;2023-04-02T01:19:50;98641.97;;;7.83;86.58
63447;BME280;49577;49.872;6.190;2023-04-02T01:22:46;98642.99;;;7.83;86.54
63447;BME280;49577;49.872;6.190;2023-04-02T01:31:23;98654.58;;;7.87;86.85
63447;BME280;49577;49.872;6.190;2023-04-02T01:33:51;98649.84;;;7.88;86.70
63447;BME280;49577;49.872;6.190;2023-04-02T01:39:16;98654.70;;;7.88;87.00
63447;BME280;49577;49.872;6.190;2023-04-02T01:44:52;98662.81;;;7.89;87.15
63447;BME280;49577;49.872;6.190;2023-04-02T01:47:22;98667.41;;;7.90;87.04
63447;BME280;49577;49.872;6.190;2023-04-02T01:50:03;98667.31;;;7.92;87.03
63447;BME280;49577;49.872;6.190;2023-04-02T01:52:49;98668.73;;;7.94;87.01
63447;BME280;49577;49.872;6.190;2023-04-02T01:55:25;98673.14;;;7.95;86.96
63447;BME280;49577;49.872;6.190;2023-04-02T01:57:53;98674.08;;;7.95;86.84
63447;BME280;49577;49.872;6.190;2023-04-02T02:00:19;98676.88;;;7.94;86.84
63447;BME280;49577;49.872;6.190;2023-04-02T02:02:48;98674.77;;;7.94;86.91
63447;BME280;49577;49.872;6.190;2023-04-02T02:05:17;98680.34;;;7.95;86.91
63447;BME280;49577;49.872;6.190;2023-04-02T02:07:45;98684.30;;;7.95;87.08
63447;BME280;49577;49.872;6.190;2023-04-02T02:10:17;98684.81;;;7.95;86.98
63447;BME280;49577;49.872;6.190;2023-04-02T02:12:43;98684.79;;;7.96;86.95
63447;BME280;49577;49.872;6.190;2023-04-02T02:15:30;98688.09;;;7.96;86.83
63447;BME280;49577;49.872;6.190;2023-04-02T02:17:59;98690.05;;;7.95;86.87
63447;BME280;49577;49.872;6.190;2023-04-02T02:20:26;98692.50;;;7.95;86.94
63447;BME280;49577;49.872;6.190;2023-04-02T02:22:52;98692.48;;;7.95;87.06
63447;BME280;49577;49.872;6.190;2023-04-02T02:25:21;98694.79;;;7.94;86.85
63447;BME280;49577;49.872;6.190;2023-04-02T02:30:37;98706.89;;;7.93;86.99
63447;BME280;49577;49.872;6.190;2023-04-02T02:36:06;98707.67;;;7.91;86.93
63447;BME280;49577;49.872;6.190;2023-04-02T02:46:33;98725.48;;;7.79;87.08
63447;BME280;49577;49.872;6.190;2023-04-02T02:49:00;98726.53;;;7.79;87.31
63447;BME280;49577;49.872;6.190;2023-04-02T02:51:47;98729.96;;;7.80;87.42
63447;BME280;49577;49.872;6.190;2023-04-02T02:54:16;98732.29;;;7.81;87.49
63447;BME280;49577;49.872;6.190;2023-04-02T02:56:47;98742.26;;;7.83;87.56
63447;BME280;49577;49.872;6.190;2023-04-02T02:59:14;98745.04;;;7.86;87.56
63447;BME280;49577;49.872;6.190;2023-04-02T03:01:42;98745.44;;;7.88;87.66
63447;BME280;49577;49.872;6.190;2023-04-02T03:04:08;98748.61;;;7.90;87.82
63447;BME280;49577;49.872;6.190;2023-04-02T03:06:34;98750.21;;;7.92;88.01
63447;BME280;49577;49.872;6.190;2023-04-02T03:14:34;98759.80;;;7.97;88.03
63447;BME280;49577;49.872;6.190;2023-04-02T03:17:22;98764.41;;;7.98;87.95
63447;BME280;49577;49.872;6.190;2023-04-02T03:19:57;98770.56;;;7.97;87.74
63447;BME280;49577;49.872;6.190;2023-04-02T03:22:31;98774.23;;;7.97;87.83
63447;BME280;49577;49.872;6.190;2023-04-02T03:25:15;98780.77;;;7.98;87.83
63447;BME280;49577;49.872;6.190;2023-04-02T03:27:48;98784.63;;;7.98;87.74
63447;BME280;49577;49.872;6.190;2023-04-02T03:31:17;98786.95;;;7.97;87.69
63447;BME280;49577;49.872;6.190;2023-04-02T03:33:26;98791.77;;;7.95;87.45
63447;BME280;49577;49.872;6.190;2023-04-02T03:36:02;98795.13;;;7.94;87.32
63447;BME280;49577;49.872;6.190;2023-04-02T03:38:40;98800.02;;;7.94;87.17
63447;BME280;49577;49.872;6.190;2023-04-02T03:41:16;98800.85;;;7.95;87.26
63447;BME280;49577;49.872;6.190;2023-04-02T03:43:50;98808.48;;;7.95;87.23
63447;BME280;49577;49.872;6.190;2023-04-02T03:46:36;98812.37;;;7.97;87.40
63447;BME280;49577;49.872;6.190;2023-04-02T03:49:09;98814.01;;;7.98;87.33
63447;BME280;49577;49.872;6.190;2023-04-02T03:51:56;98817.40;;;7.97;87.20
63447;BME280;49577;49.872;6.190;2023-04-02T03:54:23;98826.56;;;7.92;86.56
63447;BME280;49577;49.872;6.190;2023-04-02T03:56:51;98832.48;;;7.89;86.65
63447;BME280;49577;49.872;6.190;2023-04-02T03:59:39;98837.17;;;7.86;86.58
63447;BME280;49577;49.872;6.190;2023-04-02T04:04:38;98849.05;;;7.83;86.45
63447;BME280;49577;49.872;6.190;2023-04-02T04:07:10;98850.52;;;7.81;85.95
63447;BME280;49577;49.872;6.190;2023-04-02T04:09:37;98857.17;;;7.80;85.87
63447;BME280;49577;49.872;6.190;2023-04-02T04:12:15;98861.16;;;7.81;85.80
63447;BME280;49577;49.872;6.190;2023-04-02T04:14:51;98862.63;;;7.80;85.68
63447;BME280;49577;49.872;6.190;2023-04-02T04:20:01;98866.58;;;7.75;85.49
63447;BME280;49577;49.872;6.190;2023-04-02T04:22:32;98867.43;;;7.73;85.63
63447;BME280;49577;49.872;6.190;2023-04-02T04:25:04;98877.58;;;7.71;85.67
63447;BME280;49577;49.872;6.190;2023-04-02T04:27:59;98878.65;;;7.71;85.76
63447;BME280;49577;49.872;6.190;2023-04-02T04:30:36;98888.86;;;7.72;85.89
63447;BME280;49577;49.872;6.190;2023-04-02T04:33:25;98893.69;;;7.72;85.65
63447;BME280;49577;49.872;6.190;2023-04-02T04:35:58;98897.94;;;7.71;85.49
63447;BME280;49577;49.872;6.190;2023-04-02T04:38:32;98898.70;;;7.70;85.51
63447;BME280;49577;49.872;6.190;2023-04-02T04:41:09;98905.70;;;7.70;85.53
63447;BME280;49577;49.872;6.190;2023-04-02T04:46:22;98914.67;;;7.65;85.40
63447;BME280;49577;49.872;6.190;2023-04-02T04:54:03;98925.39;;;7.63;85.23
63447;BME280;49577;49.872;6.190;2023-04-02T04:56:29;98930.05;;;7.61;85.44
63447;BME280;49577;49.872;6.190;2023-04-02T04:59:05;98936.85;;;7.60;85.58
63447;BME280;49577;49.872;6.190;2023-04-02T05:01:40;98939.46;;;7.60;85.31
63447;BME280;49577;49.872;6.190;2023-04-02T05:04:29;98942.16;;;7.59;85.14
63447;BME280;49577;49.872;6.190;2023-04-02T05:09:41;98947.48;;;7.57;85.00
63447;BME280;49577;49.872;6.190;2023-04-02T05:12:17;98949.33;;;7.55;84.98
63447;BME280;49577;49.872;6.190;2023-04-02T05:17:43;98956.86;;;7.52;84.96
63447;BME280;49577;49.872;6.190;2023-04-02T05:20:17;98959.36;;;7.50;85.01
63447;BME280;49577;49.872;6.190;2023-04-02T05:25:23;98973.94;;;7.51;85.22
63447;BME280;49577;49.872;6.190;2023-04-02T05:28:37;98979.60;;;7.52;85.23
63447;BME280;49577;49.872;6.190;2023-04-02T05:30:51;98984.67;;;7.51;85.07
63447;BME280;49577;49.872;6.190;2023-04-02T05:33:24;98989.05;;;7.51;84.85
63447;BME280;49577;49.872;6.190;2023-04-02T05:36:03;98991.86;;;7.50;84.64
63447;BME280;49577;49.872;6.190;2023-04-02T05:38:35;98994.83;;;7.50;84.62
63447;BME280;49577;49.872;6.190;2023-04-02T05:41:14;99001.04;;;7.51;84.74
63447;BME280;49577;49.872;6.190;2023-04-02T05:43:46;99003.98;;;7.51;84.36
63447;BME280;49577;49.872;6.190;2023-04-02T05:46:16;99005.27;;;7.50;84.40
63447;BME280;49577;49.872;6.190;2023-04-02T05:48:43;99012.16;;;7.48;84.10
63447;BME280;49577;49.872;6.190;2023-04-02T05:51:25;99015.14;;;7.45;83.84
63447;BME280;49577;49.872;6.190;2023-04-02T05:54:00;99022.05;;;7.39;83.57
63447;BME280;49577;49.872;6.190;2023-04-02T05:56:36;99023.98;;;7.36;83.52
63447;BME280;49577;49.872;6.190;2023-04-02T05:59:11;99027.91;;;7.34;83.68
63447;BME280;49577;49.872;6.190;2023-04-02T06:01:58;99030.29;;;7.35;83.72
63447;BME280;49577;49.872;6.190;2023-04-02T06:04:44;99035.23;;;7.37;83.66
63447;BME280;49577;49.872;6.190;2023-04-02T06:09:51;99047.07;;;7.40;83.81
63447;BME280;49577;49.872;6.190;2023-04-02T06:14:52;99054.98;;;7.41;83.67
63447;BME280;49577;49.872;6.190;2023-04-02T06:17:18;99062.78;;;7.41;83.64
63447;BME280;49577;49.872;6.190;2023-04-02T06:19:44;99061.71;;;7.42;83.46
63447;BME280;49577;49.872;6.190;2023-04-02T06:22:19;99064.77;;;7.43;83.29
63447;BME280;49577;49.872;6.190;2023-04-02T06:24:51;99070.80;;;7.44;83.38
63447;BME280;49577;49.872;6.190;2023-04-02T06:27:21;99074.39;;;7.42;82.96
63447;BME280;49577;49.872;6.190;2023-04-02T06:29:49;99082.31;;;7.43;83.42
63447;BME280;49577;49.872;6.190;2023-04-02T06:32:18;99084.52;;;7.47;83.47
63447;BME280;49577;49.872;6.190;2023-04-02T06:34:47;99088.85;;;7.53;83.44
63447;BME280;49577;49.872;6.190;2023-04-02T06:37:20;99095.10;;;7.56;82.98
63447;BME280;49577;49.872;6.190;2023-04-02T06:39:47;99097.08;;;7.52;81.95
63447;BME280;49577;49.872;6.190;2023-04-02T06:42:17;99102.30;;;7.49;82.27
63447;BME280;49577;49.872;6.190;2023-04-02T06:44:43;99107.11;;;7.50;82.38
63447;BME280;49577;49.872;6.190;2023-04-02T06:50:19;99120.85;;;7.41;81.77
63447;BME280;49577;49.872;6.190;2023-04-02T06:52:55;99124.20;;;7.40;81.79
63447;BME280;49577;49.872;6.190;2023-04-02T06:55:31;99130.73;;;7.41;81.93
63447;BME280;49577;49.872;6.190;2023-04-02T06:57:57;99136.21;;;7.43;81.66
63447;BME280;49577;49.872;6.190;2023-04-02T07:00:35;99144.16;;;7.43;81.65
63447;BME280;49577;49.872;6.190;2023-04-02T07:03:05;99148.79;;;7.47;81.76
63447;BME280;49577;49.872;6.190;2023-04-02T07:05:30;99154.11;;;7.48;81.23
63447;BME280;49577;49.872;6.190;2023-04-02T07:07:56;99156.05;;;7.48;81.37
63447;BME280;49577;49.872;6.190;2023-04-02T07:10:21;99161.80;;;7.51;81.43
63447;BME280;49577;49.872;6.190;2023-04-02T07:12:46;99167.44;;;7.55;81.40
63447;BME280;49577;49.872;6.190;2023-04-02T07:15:16;99171.00;;;7.60;81.35
63447;BME280;49577;49.872;6.190;2023-04-02T07:17:44;99179.70;;;7.63;81.00
63447;BME280;49577;49.872;6.190;2023-04-02T07:20:31;99182.14;;;7.62;80.71
63447;BME280;49577;49.872;6.190;2023-04-02T07:22:56;99188.88;;;7.60;80.25
63447;BME280;49577;49.872;6.190;2023-04-02T07:25:23;99196.39;;;7.60;80.28
63447;BME280;49577;49.872;6.190;2023-04-02T07:27:50;99208.16;;;7.61;80.13
63447;BME280;49577;49.872;6.190;2023-04-02T07:30:15;99214.11;;;7.60;79.84
63447;BME280;49577;49.872;6.190;2023-04-02T07:32:40;99219.23;;;7.59;80.05
63447;BME280;49577;49.872;6.190;2023-04-02T07:35:06;99219.71;;;7.59;80.07
63447;BME280;49577;49.872;6.190;2023-04-02T07:37:32;99230.69;;;7.59;79.73
63447;BME280;49577;49.872;6.190;2023-04-02T07:39:57;99233.30;;;7.58;79.67
63447;BME280;49577;49.872;6.190;2023-04-02T07:42:23;99237.34;;;7.61;79.84
63447;BME280;49577;49.872;6.190;2023-04-02T07:44:48;99239.63;;;7.63;79.42
63447;BME280;49577;49.872;6.190;2023-04-02T07:47:13;99240.61;;;7.65;79.09
63447;BME280;49577;49.872;6.190;2023-04-02T07:49:39;99242.05;;;7.61;78.80
63447;BME280;49577;49.872;6.190;2023-04-02T07:52:04;99244.08;;;7.62;79.37
63447;BME280;49577;49.872;6.190;2023-04-02T07:54:31;99245.07;;;7.66;78.58
63447;BME280;49577;49.872;6.190;2023-04-02T07:56:56;99244.30;;;7.67;78.59
63447;BME280;49577;49.872;6.190;2023-04-02T07:59:21;99248.23;;;7.74;78.62
63447;BME280;49577;49.872;6.190;2023-04-02T08:01:46;99246.50;;;7.83;78.80
63447;BME280;49577;49.872;6.190;2023-04-02T08:04:19;99250.53;;;7.98;78.53
63447;BME280;49577;49.872;6.190;2023-04-02T08:06:46;99258.18;;;8.10;77.85
63447;BME280;49577;49.872;6.190;2023-04-02T08:09:13;99266.05;;;8.21;78.08
63447;BME280;49577;49.872;6.190;2023-04-02T08:11:39;99271.99;;;8.36;78.21
63447;BME280;49577;49.872;6.190;2023-04-02T08:14:06;99281.66;;;8.46;77.73
63447;BME280;49577;49.872;6.190;2023-04-02T08:16:51;99288.48;;;8.55;77.45
63447;BME280;49577;49.872;6.190;2023-04-02T08:19:18;99294.41;;;8.72;77.35
63447;BME280;49577;49.872;6.190;2023-04-02T08:21:43;99298.21;;;8.87;76.58
63447;BME280;49577;49.872;6.190;2023-04-02T08:24:09;99300.08;;;8.97;75.78
63447;BME280;49577;49.872;6.190;2023-04-02T08:26:34;99302.36;;;9.02;75.90
63447;BME280;49577;49.872;6.190;2023-04-02T08:29:00;99306.29;;;9.12;75.78
63447;BME280;49577;49.872;6.190;2023-04-02T08:31:26;99308.04;;;9.20;75.11
63447;BME280;49577;49.872;6.190;2023-04-02T08:33:51;99313.98;;;9.25;73.86
63447;BME280;49577;49.872;6.190;2023-04-02T08:36:19;99315.36;;;9.22;74.50
63447;BME280;49577;49.872;6.190;2023-04-02T08:38:49;99320.42;;;9.31;73.83
63447;BME280;49577;49.872;6.190;2023-04-02T08:41:22;99327.39;;;9.34;73.41
63447;BME280;49577;49.872;6.190;2023-04-02T08:44:16;99333.71;;;9.36;73.18
63447;BME280;49577;49.872;6.190;2023-04-02T08:46:49;99336.48;;;9.36;73.33
63447;BME280;49577;49.872;6.190;2023-04-02T08:49:19;99339.36;;;9.43;73.36
63447;BME280;49577;49.872;6.190;2023-04-02T08:51:47;99343.90;;;9.43;71.82
63447;BME280;49577;49.872;6.190;2023-04-02T08:54:27;99344.38;;;9.41;71.92
63447;BME280;49577;49.872;6.190;2023-04-02T08:57:19;99346.14;;;9.52;72.17
63447;BME280;49577;49.872;6.190;2023-04-02T08:59:41;99347.73;;;9.63;71.93
63447;BME280;49577;49.872;6.190;2023-04-02T09:04:41;99347.89;;;9.60;70.45
63447;BME280;49577;49.872;6.190;2023-04-02T09:07:11;99352.84;;;9.59;70.79
63447;BME280;49577;49.872;6.190;2023-04-02T09:09:38;99357.86;;;9.71;70.85
63447;BME280;49577;49.872;6.190;2023-04-02T09:12:04;99363.98;;;9.79;69.91
63447;BME280;49577;49.872;6.190;2023-04-02T09:14:53;99371.52;;;9.78;69.94
63447;BME280;49577;49.872;6.190;2023-04-02T09:17:24;99374.78;;;9.90;69.09
63447;BME280;49577;49.872;6.190;2023-04-02T09:19:57;99380.68;;;10.02;68.84
63447;BME280;49577;49.872;6.190;2023-04-02T09:22:27;99384.98;;;10.16;68.63
63447;BME280;49577;49.872;6.190;2023-04-02T09:24:55;99389.34;;;10.25;68.57
63447;BME280;49577;49.872;6.190;2023-04-02T09:27:26;99392.17;;;10.27;68.32
63447;BME280;49577;49.872;6.190;2023-04-02T09:29:56;99396.02;;;10.27;68.51
63447;BME280;49577;49.872;6.190;2023-04-02T09:32:48;99396.21;;;10.29;68.62
63447;BME280;49577;49.872;6.190;2023-04-02T09:35:18;99405.02;;;10.36;68.59
63447;BME280;49577;49.872;6.190;2023-04-02T09:37:45;99413.83;;;10.43;68.32
63447;BME280;49577;49.872;6.190;2023-04-02T09:40:26;99421.08;;;10.41;67.63
63447;BME280;49577;49.872;6.190;2023-04-02T09:45:28;99438.55;;;10.22;68.00
63447;BME280;49577;49.872;6.190;2023-04-02T09:47:54;99443.96;;;10.05;68.37
63447;BME280;49577;49.872;6.190;2023-04-02T09:50:27;99446.06;;;9.91;68.95
63447;BME280;49577;49.872;6.190;2023-04-02T09:52:53;99451.08;;;9.83;69.39
63447;BME280;49577;49.872;6.190;2023-04-02T09:55:22;99457.73;;;9.83;69.56
63447;BME280;49577;49.872;6.190;2023-04-02T09:57:50;99462.27;;;9.86;68.98
63447;BME280;49577;49.872;6.190;2023-04-02T10:00:23;99463.27;;;9.86;69.48
63447;BME280;49577;49.872;6.190;2023-04-02T10:05:42;99471.36;;;9.80;68.73
63447;BME280;49577;49.872;6.190;2023-04-02T10:08:18;99477.89;;;9.84;68.96
63447;BME280;49577;49.872;6.190;2023-04-02T10:10:47;99482.45;;;9.96;68.57
63447;BME280;49577;49.872;6.190;2023-04-02T10:13:27;99480.02;;;10.12;68.50
63447;BME280;49577;49.872;6.190;2023-04-02T10:16:00;99486.61;;;10.38;68.21
63447;BME280;49577;49.872;6.190;2023-04-02T10:21:18;99496.34;;;10.55;65.80
63447;BME280;49577;49.872;6.190;2023-04-02T10:23:47;99504.63;;;10.54;66.46
63447;BME280;49577;49.872;6.190;2023-04-02T10:29:09;99512.49;;;10.48;65.97
63447;BME280;49577;49.872;6.190;2023-04-02T10:34:23;99524.39;;;10.46;67.02
63447;BME280;49577;49.872;6.190;2023-04-02T10:36:54;99520.77;;;10.45;66.77
63447;BME280;49577;49.872;6.190;2023-04-02T10:39:37;99524.95;;;10.42;66.41
63447;BME280;49577;49.872;6.190;2023-04-02T10:42:30;99527.07;;;10.38;65.77
63447;BME280;49577;49.872;6.190;2023-04-02T10:47:50;99540.63;;;10.48;65.26
63447;BME280;49577;49.872;6.190;2023-04-02T10:50:48;99545.25;;;10.58;65.40
63447;BME280;49577;49.872;6.190;2023-04-02T10:53:17;99551.83;;;10.67;64.41
63447;BME280;49577;49.872;6.190;2023-04-02T10:55:47;99557.88;;;10.81;64.71
63447;BME280;49577;49.872;6.190;2023-04-02T10:58:21;99558.79;;;11.05;64.72
63447;BME280;49577;49.872;6.190;2023-04-02T11:00:47;99565.64;;;11.31;63.60
63447;BME280;49577;49.872;6.190;2023-04-02T11:03:26;99565.16;;;11.38;62.74
63447;BME280;49577;49.872;6.190;2023-04-02T11:05:56;99568.81;;;11.39;63.41
63447;BME280;49577;49.872;6.190;2023-04-02T11:08:28;99567.74;;;11.34;61.99
63447;BME280;49577;49.872;6.190;2023-04-02T11:10:59;99577.27;;;11.19;62.76
63447;BME280;49577;49.872;6.190;2023-04-02T11:13:32;99582.40;;;11.26;63.58
63447;BME280;49577;49.872;6.190;2023-04-02T11:15:58;99585.02;;;11.39;62.56
63447;BME280;49577;49.872;6.190;2023-04-02T11:18:28;99584.83;;;11.42;62.52
63447;BME280;49577;49.872;6.190;2023-04-02T11:21:06;99594.71;;;11.46;61.80
63447;BME280;49577;49.872;6.190;2023-04-02T11:23:35;99596.67;;;11.51;62.06
63447;BME280;49577;49.872;6.190;2023-04-02T11:26:28;99600.87;;;11.48;61.00
63447;BME280;49577;49.872;6.190;2023-04-02T11:29:04;99611.17;;;11.35;61.93
63447;BME280;49577;49.872;6.190;2023-04-02T11:31:31;99614.83;;;11.22;60.85
63447;BME280;49577;49.872;6.190;2023-04-02T11:33:57;99616.69;;;11.07;62.26
63447;BME280;49577;49.872;6.190;2023-04-02T11:42:21;99620.95;;;11.65;61.88
63447;BME280;49577;49.872;6.190;2023-04-02T11:44:47;99624.36;;;11.71;60.89
63447;BME280;49577;49.872;6.190;2023-04-02T11:47:20;99624.34;;;11.63;61.02
63447;BME280;49577;49.872;6.190;2023-04-02T11:52:50;99632.05;;;11.76;60.34
63447;BME280;49577;49.872;6.190;2023-04-02T11:55:23;99638.02;;;11.71;60.27
63447;BME280;49577;49.872;6.190;2023-04-02T12:09:23;99657.29;;;11.14;61.73
63447;BME280;49577;49.872;6.190;2023-04-02T12:11:55;99661.24;;;11.26;61.85
63447;BME280;49577;49.872;6.190;2023-04-02T12:14:47;99670.71;;;11.36;61.41
63447;BME280;49577;49.872;6.190;2023-04-02T12:17:23;99676.01;;;11.30;60.16
63447;BME280;49577;49.872;6.190;2023-04-02T12:19:52;99681.05;;;11.01;60.54
63447;BME280;49577;49.872;6.190;2023-04-02T12:22:21;99681.34;;;10.79;61.17
63447;BME280;49577;49.872;6.190;2023-04-02T12:24:47;99684.04;;;10.73;61.69
63447;BME280;49577;49.872;6.190;2023-04-02T12:27:19;99691.48;;;10.68;61.43
63447;BME280;49577;49.872;6.190;2023-04-02T12:29:50;99692.52;;;10.49;61.21
63447;BME280;49577;49.872;6.190;2023-04-02T12:32:28;99698.87;;;10.36;62.16
63447;BME280;49577;49.872;6.190;2023-04-02T12:34:55;99700.80;;;10.36;62.71
63447;BME280;49577;49.872;6.190;2023-04-02T12:37:28;99700.58;;;10.48;62.79
63447;BME280;49577;49.872;6.190;2023-04-02T12:39:59;99705.67;;;10.51;62.50
63447;BME280;49577;49.872;6.190;2023-04-02T12:42:33;99710.14;;;10.55;62.47
63447;BME280;49577;49.872;6.190;2023-04-02T12:44:59;99708.70;;;10.61;62.58
63447;BME280;49577;49.872;6.190;2023-04-02T12:47:26;99715.21;;;10.80;62.46
63447;BME280;49577;49.872;6.190;2023-04-02T12:49:53;99718.90;;;11.05;62.83
63447;BME280;49577;49.872;6.190;2023-04-02T12:52:21;99718.77;;;11.35;62.29
63447;BME280;49577;49.872;6.190;2023-04-02T12:54:52;99716.77;;;11.55;61.83
63447;BME280;49577;49.872;6.190;2023-04-02T12:57:38;99721.84;;;11.71;61.94
63447;BME280;49577;49.872;6.190;2023-04-02T13:02:48;99729.16;;;11.93;60.47
63447;BME280;49577;49.872;6.190;2023-04-02T13:08:19;99740.50;;;11.82;59.42
63447;BME280;49577;49.872;6.190;2023-04-02T13:10:51;99741.02;;;11.66;59.36
63447;BME280;49577;49.872;6.190;2023-04-02T13:13:23;99742.58;;;11.54;59.25
63447;BME280;49577;49.872;6.190;2023-04-02T13:18:42;99749.13;;;11.44;59.96
63447;BME280;49577;49.872;6.190;2023-04-02T13:23:43;99758.20;;;10.91;59.50
63447;BME280;49577;49.872;6.190;2023-04-02T13:26:27;99756.98;;;10.63;59.67
63447;BME280;49577;49.872;6.190;2023-04-02T13:29:00;99755.38;;;10.37;60.30
63447;BME280;49577;49.872;6.190;2023-04-02T13:31:27;99760.87;;;10.27;61.46
63447;BME280;49577;49.872;6.190;2023-04-02T13:33:53;99762.75;;;10.24;62.07
63447;BME280;49577;49.872;6.190;2023-04-02T13:36:18;99774.66;;;10.21;61.92
63447;BME280;49577;49.872;6.190;2023-04-02T13:38:43;99776.48;;;10.07;62.30
63447;BME280;49577;49.872;6.190;2023-04-02T13:41:26;99773.15;;;9.96;62.90
63447;BME280;49577;49.872;6.190;2023-04-02T13:43:57;99777.02;;;9.89;62.73
63447;BME280;49577;49.872;6.190;2023-04-02T13:46:26;99784.71;;;9.73;63.02
63447;BME280;49577;49.872;6.190;2023-04-02T13:48:53;99786.77;;;9.64;63.67
63447;BME280;49577;49.872;6.190;2023-04-02T13:51:21;99793.95;;;9.60;63.94
63447;BME280;49577;49.872;6.190;2023-04-02T13:53:52;99798.53;;;9.47;64.38
63447;BME280;49577;49.872;6.190;2023-04-02T13:56:19;99802.08;;;9.30;64.85
63447;BME280;49577;49.872;6.190;2023-04-02T13:58:47;99811.51;;;9.10;65.83
63447;BME280;49577;49.872;6.190;2023-04-02T14:01:12;99813.94;;;9.01;66.42
63447;BME280;49577;49.872;6.190;2023-04-02T14:03:38;99818.54;;;8.97;66.42
63447;BME280;49577;49.872;6.190;2023-04-02T14:22:28;99841.09;;;8.81;67.36
63447;BME280;49577;49.872;6.190;2023-04-02T14:33:56;99863.41;;;8.57;67.89
63447;BME280;49577;49.872;6.190;2023-04-02T14:36:29;99866.90;;;8.47;68.34
63447;BME280;49577;49.872;6.190;2023-04-02T14:39:07;99873.55;;;8.46;68.46
63447;BME280;49577;49.872;6.190;2023-04-02T14:44:38;99884.61;;;8.68;68.53
63447;BME280;49577;49.872;6.190;2023-04-02T14:47:17;99889.81;;;8.76;68.10
63447;BME280;49577;49.872;6.190;2023-04-02T14:49:44;99887.60;;;8.78;68.49
63447;BME280;49577;49.872;6.190;2023-04-02T14:52:16;99891.19;;;8.72;68.32
63447;BME280;49577;49.872;6.190;2023-04-02T14:54:48;99890.43;;;8.73;68.33
63447;BME280;49577;49.872;6.190;2023-04-02T15:02:53;99903.81;;;8.31;68.64
63447;BME280;49577;49.872;6.190;2023-04-02T15:05:41;99904.48;;;8.25;69.18
63447;BME280;49577;49.872;6.190;2023-04-02T15:13:20;99910.00;;;8.15;69.55
63447;BME280;49577;49.872;6.190;2023-04-02T15:16:04;99907.85;;;8.09;69.54
63447;BME280;49577;49.872;6.190;2023-04-02T15:18:32;99916.14;;;8.06;69.98
63447;BME280;49577;49.872;6.190;2023-04-02T15:32:05;99938.60;;;7.80;70.38
63447;BME280;49577;49.872;6.190;2023-04-02T15:34:44;99941.63;;;7.67;70.66
63447;BME280;49577;49.872;6.190;2023-04-02T15:37:23;99940.48;;;7.58;71.39
63447;BME280;49577;49.872;6.190;2023-04-02T15:42:32;99946.66;;;7.60;71.56
63447;BME280;49577;49.872;6.190;2023-04-02T15:55:35;99963.85;;;7.25;72.68
63447;BME280;49577;49.872;6.190;2023-04-02T16:06:19;99972.80;;;7.30;72.58
63447;BME280;49577;49.872;6.190;2023-04-02T16:11:29;99975.43;;;7.22;73.04
63447;BME280;49577;49.872;6.190;2023-04-02T16:14:07;99978.65;;;7.24;72.89
63447;BME280;49577;49.872;6.190;2023-04-02T16:16:39;99976.29;;;7.18;72.94
63447;BME280;49577;49.872;6.190;2023-04-02T16:21:42;99980.73;;;7.24;73.24
63447;BME280;49577;49.872;6.190;2023-04-02T16:24:12;99984.27;;;7.26;73.22
63447;BME280;49577;49.872;6.190;2023-04-02T16:32:27;100003.30;;;7.24;73.22
63447;BME280;49577;49.872;6.190;2023-04-02T16:37:51;100012.15;;;7.21;73.49
63447;BME280;49577;49.872;6.190;2023-04-02T16:41:03;100020.09;;;7.18;73.30
63447;BME280;49577;49.872;6.190;2023-04-02T16:53:57;100036.42;;;6.84;74.47
63447;BME280;49577;49.872;6.190;2023-04-02T16:59:04;100048.10;;;6.74;74.88
63447;BME280;49577;49.872;6.190;2023-04-02T17:02:12;100049.20;;;6.68;75.12
63447;BME280;49577;49.872;6.190;2023-04-02T17:05:11;100053.38;;;6.68;75.43
63447;BME280;49577;49.872;6.190;2023-04-02T17:10:32;100058.67;;;6.57;75.78
63447;BME280;49577;49.872;6.190;2023-04-02T17:13:38;100066.40;;;6.59;75.85
63447;BME280;49577;49.872;6.190;2023-04-02T17:16:03;100065.77;;;6.62;75.63
63447;BME280;49577;49.872;6.190;2023-04-02T17:18:32;100068.69;;;6.63;75.68
63447;BME280;49577;49.872;6.190;2023-04-02T17:21:02;100074.16;;;6.65;75.77
63447;BME280;49577;49.872;6.190;2023-04-02T17:23:30;100076.73;;;6.61;75.68
63447;BME280;49577;49.872;6.190;2023-04-02T17:26:00;100082.11;;;6.62;75.83